Pau Brasil, Brazil
Current Conditions -  °F | °C
As of 3:00 PM on Thursday 23 Oct 2014 (Local Time) from SBIL Reporting Station
Rain Showers Rain Showers  
Wind Chill: 79°   Ceiling: 7000
Heat Index: 81°   Visibility: 5mi
Dew Point: 70°   Wind: 14mph
Humidity: 74%   Direction: 130°SE
Pressure: NA   Gusts: NA
Location:  15.46°S, 39.65°W
Report Text: SBIL 231800Z 13012KT 8000 VCSH SCT020 FEW030TCU BKN070 26/21 Q1016
Loading
Personal Weather Stations






























Interactive Weather Map
Tropical Storm Tracking
New forecast layout! Learn more

10-Day Weather Forecast

Advertisements
Track Severe Weather on mobile